South Enola, Pennsylvania
Current Conditions -  °F | °C
As of 9:56 AM on Thursday 18 Dec 2014 (Local Time) from KCXY Reporting Station
Overcast Overcast  
Wind Chill: 27°   Ceiling: 3800
Heat Index: 35°   Visibility: 10mi
Dew Point: 22°   Wind: 10mph
Humidity: 59%   Direction: 280°W
Pressure: 30.13"   Gusts: NA
Location:  40.2947°N, 76.9833°W
Report Text: KCXY 181456Z 28009KT 10SM BKN038 OVC046 02/M06 A3013 RMK AO2 SLP206 T00171056 51011
Loading
Personal Weather Stations






























Interactive Weather Map New forecast layout! Learn more

10-Day Weather Forecast

Advertisements
Track Severe Weather on mobile